BIFZ weather

Forsæti Airport
Forsæti, Southern Region, Iceland

Public forecast

Using degrees Celsius for public forecast. Weather courtesy of forecast.io.

Closest aviation weather report (METAR) to Forsæti Airport

Closest report is Vestmannaeyjar Airport, 28.1 nm (52.0 km) SSE. Retrieved 2019/10/19 14:00 UTC (9 minutes ago):

BIVM 191400Z 29003KT 9999 FEW035 07/04 Q1020

Closest aviation forecast (TAF) to Forsæti Airport

Closest forecast is Reykjavik Airport, 36.3 nm (67.3 km) WNW. Retrieved 2019/10/19 15:09 UTC (0 seconds ago):

TAF BIRK 191304Z 1915/2015 24006KT 9999 FEW015 SCT025 BKN038 TX07/2015Z TN03/2006Z BECMG 2010/2012 18016KT 8000 RA BKN015 OVC025 TEMPO 2013/2015 4000 RA BR OVC010